SAMM/LGS METAR and TAF weather

Enter ICAO airport designator
Station Type Date Time Source
SAMM METAR 2018/12/05 18:40 UTC NOAA

SAMM 051840Z 32005KT 8000 RA BKN015 11/09 Q1023


Station Type Date Time Source
SAMM Decoded METAR 2018/12/05 18:40 UTC NOAA

Malargue Aerodrome, Argentina (SAMM) 35-30S 069-35W 1425M
Dec 05, 2018 - 01:40 PM EST / 2018.12.05 1840 UTC
Wind: from the NW (320 degrees) at 6 MPH (5 KT):0
Visibility: 4 mile(s):0
Sky conditions: mostly cloudy
Weather: rain
Temperature: 51 F (11 C)
Dew Point: 48 F (9 C)
Relative Humidity: 87%
Pressure (altimeter): 30.21 in. Hg (1023 hPa)
ob: SAMM 051840Z 32005KT 8000 RA BKN015 11/09 Q1023
cycle: 18

Station Type Date Time Source
SAMM TAF UTC NOAA

Error!


Example: see airport list